Time;durP1;ratioP1;P1;durP2;ratioP2;P2;SDS_P1;SDS_P2;PMS_P1;PMS_P2;Temp;Humidity;BMP_temperature;BMP_pressure;BME280_temperature;BME280_humidity;BME280_pressure;Samples;Min_cycle;Max_cycle;Signal;HPM_P1;HPM_P2
2021/03/26 00:02:14;;;;;;;10.48;8.25;;;6.10;99.90;;;;;;4849407;29;20464;-77
2021/03/26 00:04:40;;;;;;;10.10;7.68;;;6.10;99.90;;;;;;4857733;29;20421;-77
2021/03/26 00:07:09;;;;;;;13.00;8.35;;;6.20;99.90;;;;;;4840115;29;21100;-78
2021/03/26 00:09:35;;;;;;;10.50;7.85;;;6.30;99.90;;;;;;4840032;29;20502;-78
2021/03/26 00:12:05;;;;;;;10.93;8.38;;;6.20;99.90;;;;;;4873337;29;20964;-78
2021/03/26 00:14:31;;;;;;;11.35;8.30;;;6.30;99.90;;;;;;4826581;29;20417;-75
2021/03/26 00:16:56;;;;;;;11.37;8.00;;;6.30;99.90;;;;;;4846911;29;20460;-77
2021/03/26 00:19:22;;;;;;;12.30;8.95;;;6.30;99.90;;;;;;4841423;29;20845;-77
2021/03/26 00:21:48;;;;;;;9.18;7.78;;;6.20;99.90;;;;;;4857528;29;20442;-77
2021/03/26 00:24:13;;;;;;;9.47;7.73;;;6.20;99.90;;;;;;4846810;29;20425;-76
2021/03/26 00:26:39;;;;;;;11.48;8.57;;;6.20;99.90;;;;;;4857323;29;20477;-77
2021/03/26 00:29:11;;;;;;;9.77;8.10;;;6.10;99.90;;;;;;4858251;29;20630;-76
2021/03/26 00:31:41;;;;;;;10.68;7.97;;;6.10;99.90;;;;;;4840590;29;20427;-77
2021/03/26 00:34:07;;;;;;;10.38;8.32;;;6.10;99.90;;;;;;4857495;29;21019;-77
2021/03/26 00:36:34;;;;;;;10.82;7.93;;;6.10;99.90;;;;;;4857866;29;20476;-77
2021/03/26 00:39:00;;;;;;;10.60;8.00;;;6.10;99.90;;;;;;4872221;29;20416;-77
2021/03/26 00:41:26;;;;;;;11.18;9.02;;;6.10;99.90;;;;;;4857728;29;20401;-77
2021/03/26 00:43:52;;;;;;;9.83;8.10;;;6.10;99.90;;;;;;4851892;29;20464;-77
2021/03/26 00:46:17;;;;;;;14.90;10.82;;;6.10;99.90;;;;;;4855065;29;20409;-77
2021/03/26 00:48:43;;;;;;;9.67;8.60;;;6.10;99.90;;;;;;4870248;29;20425;-76
2021/03/26 00:51:10;;;;;;;12.03;9.17;;;5.90;99.90;;;;;;4843157;29;20499;-77
2021/03/26 00:53:36;;;;;;;11.88;8.32;;;6.10;99.90;;;;;;4861533;29;20512;-77
2021/03/26 00:56:05;;;;;;;14.35;8.52;;;5.90;99.90;;;;;;4848827;29;20406;-77
2021/03/26 00:58:31;;;;;;;9.75;8.20;;;6.00;99.90;;;;;;4864017;29;20779;-78
2021/03/26 01:00:57;;;;;;;11.27;8.93;;;5.90;99.90;;;;;;4826080;29;20429;-77
2021/03/26 01:03:23;;;;;;;10.73;8.73;;;5.90;99.90;;;;;;4856621;29;20405;-77
2021/03/26 01:05:52;;;;;;;11.10;8.75;;;5.90;99.90;;;;;;4841597;29;20409;-77
2021/03/26 01:08:19;;;;;;;11.55;8.98;;;6.00;99.90;;;;;;4842606;29;20492;-77
2021/03/26 01:10:47;;;;;;;11.57;9.23;;;5.90;99.90;;;;;;4827767;29;20416;-78
2021/03/26 01:13:15;;;;;;;10.88;8.70;;;5.90;99.90;;;;;;4859688;29;20766;-77
2021/03/26 01:15:41;;;;;;;11.20;8.82;;;5.80;99.90;;;;;;4857889;29;20926;-75
2021/03/26 01:18:13;;;;;;;14.27;9.90;;;5.80;99.90;;;;;;4859893;29;20420;-77
2021/03/26 01:20:38;;;;;;;13.10;9.35;;;5.80;99.90;;;;;;4855675;29;21001;-78
2021/03/26 01:23:05;;;;;;;14.60;10.80;;;5.80;99.90;;;;;;4839730;29;20447;-77
2021/03/26 01:25:37;;;;;;;12.75;10.68;;;5.60;99.90;;;;;;4855347;29;20413;-78
2021/03/26 01:28:35;;;;;;;13.77;9.70;;;5.60;99.90;;;;;;4859591;29;21055;-78
2021/03/26 01:31:27;;;;;;;13.10;9.47;;;5.60;99.90;;;;;;4879724;29;20455;-78
2021/03/26 01:33:53;;;;;;;10.77;8.75;;;5.40;99.90;;;;;;4826925;29;20447;-77
2021/03/26 01:36:20;;;;;;;10.50;8.90;;;5.50;99.90;;;;;;4857348;29;20424;-78
2021/03/26 01:38:46;;;;;;;13.20;9.10;;;5.50;99.90;;;;;;4842311;29;20985;-78
2021/03/26 01:41:35;;;;;;;12.50;9.82;;;5.50;99.90;;;;;;4843192;29;20496;-78
2021/03/26 01:44:04;;;;;;;12.90;9.07;;;5.50;99.90;;;;;;4843550;29;21068;-78
2021/03/26 01:46:29;;;;;;;12.43;9.40;;;5.40;99.90;;;;;;4872790;29;20416;-78
2021/03/26 01:48:58;;;;;;;17.75;10.52;;;5.50;99.90;;;;;;4846895;29;20504;-77
2021/03/26 01:51:35;;;;;;;12.38;9.73;;;5.40;99.90;;;;;;4857063;29;20951;-77
2021/03/26 01:54:02;;;;;;;11.07;8.95;;;5.30;99.90;;;;;;4856236;29;20778;-77
2021/03/26 01:56:30;;;;;;;12.88;10.13;;;5.20;99.90;;;;;;4854824;29;20450;-77
2021/03/26 01:59:16;;;;;;;14.25;10.77;;;5.20;99.90;;;;;;4840147;29;20424;-76
2021/03/26 02:01:50;;;;;;;12.15;9.70;;;5.10;99.90;;;;;;4854649;29;20404;-77
2021/03/26 02:04:37;;;;;;;12.18;9.73;;;5.10;99.90;;;;;;4824557;29;21262;-76
2021/03/26 02:07:26;;;;;;;10.68;9.57;;;5.00;99.90;;;;;;4870122;29;20532;-77
2021/03/26 02:09:52;;;;;;;13.98;9.65;;;4.90;99.90;;;;;;4856193;29;20408;-77
2021/03/26 02:12:22;;;;;;;11.57;9.20;;;4.90;99.90;;;;;;4826735;29;20417;-77
2021/03/26 02:14:58;;;;;;;12.80;10.43;;;5.00;99.90;;;;;;4837433;29;20423;-77
2021/03/26 02:17:28;;;;;;;12.57;9.68;;;4.90;99.90;;;;;;4864600;29;20454;-77
2021/03/26 02:20:04;;;;;;;11.65;9.52;;;4.80;99.90;;;;;;4857137;29;20945;-76
2021/03/26 02:22:31;;;;;;;14.10;10.03;;;4.80;99.90;;;;;;4856449;29;20467;-76
2021/03/26 02:24:58;;;;;;;11.85;9.38;;;4.80;99.90;;;;;;4858924;29;20449;-78
2021/03/26 02:27:30;;;;;;;14.43;10.00;;;4.80;99.90;;;;;;4855043;29;20429;-78
2021/03/26 02:29:57;;;;;;;14.02;9.88;;;4.80;99.90;;;;;;4840457;29;20413;-79
2021/03/26 02:32:39;;;;;;;12.52;8.75;;;4.70;99.90;;;;;;4853657;29;20413;-78
2021/03/26 02:35:13;;;;;;;11.07;9.30;;;4.70;99.90;;;;;;4825890;29;20499;-77
2021/03/26 02:38:02;;;;;;;12.27;9.77;;;4.70;99.90;;;;;;4840950;29;20413;-77
2021/03/26 02:40:36;;;;;;;14.20;9.57;;;4.70;99.90;;;;;;4839679;29;20926;-77
2021/03/26 02:43:29;;;;;;;13.82;10.00;;;4.70;99.90;;;;;;4841110;29;20411;-77
2021/03/26 02:46:16;;;;;;;12.93;10.05;;;4.60;99.90;;;;;;4840940;29;20415;-77
2021/03/26 02:49:00;;;;;;;13.85;9.38;;;4.50;99.90;;;;;;4860776;29;20434;-76
2021/03/26 02:51:30;;;;;;;12.40;10.05;;;4.50;99.90;;;;;;4852916;29;20409;-78
2021/03/26 02:54:02;;;;;;;11.80;9.23;;;4.50;99.90;;;;;;4841981;29;20413;-78
2021/03/26 02:56:40;;;;;;;14.23;10.70;;;4.50;99.90;;;;;;4854587;29;20500;-78
2021/03/26 02:59:13;;;;;;;14.90;10.85;;;4.40;99.90;;;;;;4829328;29;20420;-76
2021/03/26 03:01:47;;;;;;;17.38;11.48;;;4.40;99.90;;;;;;4844464;29;20422;-77
2021/03/26 03:04:15;;;;;;;12.23;10.35;;;4.30;99.90;;;;;;4859432;29;20480;-77
2021/03/26 03:06:58;;;;;;;12.68;9.95;;;4.20;99.90;;;;;;4856305;29;20415;-77
2021/03/26 03:09:27;;;;;;;12.05;9.85;;;4.20;99.90;;;;;;4842375;29;20417;-77
2021/03/26 03:12:09;;;;;;;12.07;9.47;;;4.20;99.90;;;;;;4843465;29;20458;-77
2021/03/26 03:15:00;;;;;;;12.57;9.90;;;4.20;99.90;;;;;;4865551;29;20413;-77
2021/03/26 03:17:33;;;;;;;14.02;10.88;;;4.10;99.90;;;;;;4854438;29;20740;-77
2021/03/26 03:20:35;;;;;;;13.13;10.05;;;4.10;99.90;;;;;;4854729;29;20428;-77
2021/03/26 03:23:15;;;;;;;11.77;9.93;;;4.10;99.90;;;;;;4839874;29;20487;-77
2021/03/26 03:26:35;;;;;;;11.33;10.10;;;4.00;99.90;;;;;;4858174;29;20463;-77
2021/03/26 03:29:16;;;;;;;12.68;9.73;;;4.00;99.90;;;;;;4784871;29;20998;-77
2021/03/26 03:32:19;;;;;;;11.88;10.07;;;4.00;99.90;;;;;;4857594;29;20936;-77
2021/03/26 03:35:11;;;;;;;12.85;9.90;;;3.90;99.90;;;;;;4860310;29;20487;-78
2021/03/26 03:37:58;;;;;;;11.48;9.57;;;3.90;99.90;;;;;;4850214;29;20465;-78
2021/03/26 03:40:52;;;;;;;10.30;9.20;;;3.90;99.90;;;;;;4860514;29;20971;-78
2021/03/26 03:43:22;;;;;;;11.30;8.57;;;3.90;99.90;;;;;;4856307;29;20447;-78
2021/03/26 03:45:54;;;;;;;11.85;8.40;;;4.00;99.90;;;;;;4857826;29;20412;-79
2021/03/26 03:48:53;;;;;;;9.77;8.60;;;3.90;99.90;;;;;;4862449;29;20413;-78
2021/03/26 03:51:55;;;;;;;10.65;8.80;;;3.80;99.90;;;;;;4847234;29;20408;-79
2021/03/26 03:54:30;;;;;;;10.93;8.45;;;3.70;99.90;;;;;;4846818;29;20436;-78
2021/03/26 03:57:02;;;;;;;14.48;9.98;;;3.70;99.90;;;;;;4861879;29;20464;-79
2021/03/26 04:02:44;;;;;;;15.27;9.48;;;3.40;99.90;;;;;;5286431;23;20430;-83
2021/03/26 04:05:26;;;;;;;10.85;8.27;;;3.40;99.90;;;;;;4869813;29;20402;-81
2021/03/26 04:08:04;;;;;;;10.93;9.10;;;3.30;99.90;;;;;;4883734;29;20473;-80
2021/03/26 04:10:35;;;;;;;11.57;8.82;;;3.30;99.90;;;;;;4865154;29;20464;-80
2021/03/26 04:13:04;;;;;;;15.60;9.77;;;3.30;99.90;;;;;;4848322;29;20400;-81
2021/03/26 04:15:34;;;;;;;11.60;9.05;;;3.40;99.90;;;;;;4846809;29;20416;-80
2021/03/26 04:18:11;;;;;;;10.65;8.07;;;3.30;99.90;;;;;;4847528;29;20463;-80
2021/03/26 04:21:00;;;;;;;10.38;8.43;;;3.30;99.90;;;;;;4866911;29;20480;-80
2021/03/26 04:23:49;;;;;;;14.52;9.52;;;3.20;99.90;;;;;;4845911;29;20413;-81
2021/03/26 04:26:37;;;;;;;10.55;8.80;;;3.20;99.90;;;;;;4865246;29;20878;-82
2021/03/26 04:29:47;;;;;;;10.82;8.50;;;3.10;99.90;;;;;;4870311;29;20465;-83
2021/03/26 04:32:15;;;;;;;10.85;8.73;;;3.20;99.90;;;;;;4863800;29;20404;-83
2021/03/26 04:34:43;;;;;;;12.38;9.20;;;3.10;99.90;;;;;;4850554;29;20409;-81
2021/03/26 04:37:19;;;;;;;9.63;8.13;;;3.20;99.90;;;;;;4854425;29;20412;-80
2021/03/26 04:39:55;;;;;;;9.52;8.02;;;3.10;99.90;;;;;;4846058;29;20480;-85
2021/03/26 04:42:28;;;;;;;14.55;8.68;;;3.10;99.90;;;;;;4862530;29;20413;-80
2021/03/26 04:45:09;;;;;;;11.27;8.77;;;3.10;99.90;;;;;;4846773;29;20424;-83
2021/03/26 04:48:02;;;;;;;10.00;8.57;;;3.10;99.90;;;;;;4853825;29;20413;-81
2021/03/26 04:51:02;;;;;;;9.40;8.18;;;3.10;99.90;;;;;;4865347;29;20409;-82
2021/03/26 04:54:15;;;;;;;12.95;9.23;;;3.10;99.90;;;;;;4859974;29;20439;-85
2021/03/26 04:56:56;;;;;;;10.80;9.23;;;3.10;99.90;;;;;;4854230;29;20408;-83
2021/03/26 04:59:55;;;;;;;10.57;8.85;;;3.00;99.90;;;;;;4867695;29;20477;-82
2021/03/26 05:02:21;;;;;;;10.25;8.60;;;3.00;99.90;;;;;;4863393;29;20413;-83
2021/03/26 05:04:50;;;;;;;14.18;10.25;;;3.00;99.90;;;;;;4850355;29;20461;-83
2021/03/26 05:07:20;;;;;;;13.90;10.37;;;3.10;99.90;;;;;;4865486;29;20452;-80
2021/03/26 05:09:52;;;;;;;12.73;9.82;;;2.90;99.90;;;;;;4849606;29;20906;-82
2021/03/26 05:12:48;;;;;;;15.18;10.50;;;2.90;99.90;;;;;;4863408;29;20393;-81
2021/03/26 05:15:29;;;;;;;14.77;10.47;;;2.80;99.90;;;;;;4867018;29;20428;-81
2021/03/26 05:18:17;;;;;;;12.93;9.88;;;2.80;99.90;;;;;;4859229;29;20420;-81
2021/03/26 05:20:54;;;;;;;13.70;10.27;;;2.80;99.90;;;;;;4846676;29;20440;-78
2021/03/26 05:23:27;;;;;;;13.87;9.47;;;2.80;99.90;;;;;;4859542;29;20420;-79
2021/03/26 05:26:16;;;;;;;12.40;9.73;;;2.90;99.90;;;;;;4861200;29;20424;-79
2021/03/26 05:28:48;;;;;;;13.25;9.93;;;3.10;99.90;;;;;;4847062;29;20420;-76
2021/03/26 05:31:48;;;;;;;11.02;9.13;;;3.00;99.90;;;;;;4827672;29;20428;-78
2021/03/26 05:34:48;;;;;;;13.77;10.05;;;2.90;99.90;;;;;;4876331;29;21005;-81
2021/03/26 05:37:24;;;;;;;13.23;10.40;;;2.90;99.90;;;;;;4862886;29;20413;-79
2021/03/26 05:40:46;;;;;;;10.05;9.00;;;3.00;99.90;;;;;;4857987;29;20451;-79
2021/03/26 05:44:12;;;;;;;11.25;9.93;;;3.10;99.90;;;;;;4821887;29;20954;-79
2021/03/26 05:46:48;;;;;;;11.02;9.23;;;3.20;99.90;;;;;;4812427;29;20797;-81
2021/03/26 05:49:29;;;;;;;11.55;9.48;;;3.20;99.90;;;;;;4849529;29;20404;-81
2021/03/26 05:52:22;;;;;;;14.90;10.80;;;3.20;99.90;;;;;;4875549;29;20405;-80
2021/03/26 05:54:57;;;;;;;12.60;8.73;;;3.20;99.90;;;;;;4860410;29;20408;-82
2021/03/26 05:57:36;;;;;;;13.00;10.10;;;3.20;99.90;;;;;;4860838;29;20416;-83
2021/03/26 06:00:32;;;;;;;10.95;9.35;;;3.40;99.90;;;;;;4833169;29;20498;-81
2021/03/26 06:03:39;;;;;;;10.75;9.05;;;3.30;99.90;;;;;;4882024;29;20400;-83
2021/03/26 06:06:59;;;;;;;10.90;8.95;;;3.40;99.90;;;;;;4876497;29;20820;-82
2021/03/26 06:10:14;;;;;;;12.18;9.77;;;3.50;99.90;;;;;;4878159;29;20415;-83
2021/03/26 06:13:37;;;;;;;13.20;10.88;;;3.60;99.90;;;;;;4870943;29;20417;-80
2021/03/26 06:16:35;;;;;;;11.30;9.63;;;3.60;99.90;;;;;;4855060;29;20420;-83
2021/03/26 06:19:27;;;;;;;12.70;9.60;;;3.60;99.90;;;;;;4849834;29;20420;-79
2021/03/26 06:22:22;;;;;;;12.80;9.98;;;3.80;99.90;;;;;;4882992;29;20926;-78
2021/03/26 06:25:21;;;;;;;13.27;10.40;;;3.90;99.90;;;;;;4872555;29;20412;-75
2021/03/26 06:28:14;;;;;;;10.40;9.20;;;4.00;99.90;;;;;;4855449;29;20616;-75
2021/03/26 06:31:08;;;;;;;12.20;9.98;;;4.10;99.90;;;;;;4874016;29;20413;-78
2021/03/26 06:34:12;;;;;;;12.30;10.30;;;4.20;99.90;;;;;;4896153;29;20411;-75
2021/03/26 06:37:15;;;;;;;13.52;10.32;;;4.40;99.90;;;;;;4858709;29;20412;-77
2021/03/26 06:40:07;;;;;;;12.10;9.00;;;4.50;99.90;;;;;;4852736;29;20424;-75
2021/03/26 06:42:36;;;;;;;14.23;9.30;;;4.70;99.90;;;;;;4857497;29;20408;-74
2021/03/26 06:45:26;;;;;;;11.98;9.38;;;4.90;99.90;;;;;;4869691;29;20421;-75
2021/03/26 06:48:00;;;;;;;10.43;8.80;;;5.10;99.90;;;;;;4870098;29;20425;-74
2021/03/26 06:50:47;;;;;;;14.07;10.20;;;5.30;99.90;;;;;;4872934;29;20787;-78
2021/03/26 06:53:35;;;;;;;13.70;9.95;;;5.50;99.90;;;;;;4847196;29;20819;-76
2021/03/26 06:56:45;;;;;;;17.63;9.88;;;5.70;99.90;;;;;;4855093;29;20425;-78
2021/03/26 06:59:40;;;;;;;17.00;10.50;;;5.90;99.90;;;;;;4807198;29;20464;-76
2021/03/26 07:02:39;;;;;;;12.27;10.30;;;6.20;99.90;;;;;;4791081;29;20425;-76
2021/03/26 07:05:16;;;;;;;15.15;10.60;;;6.40;99.90;;;;;;4864751;29;20431;-76
2021/03/26 07:08:10;;;;;;;12.77;10.40;;;6.70;99.90;;;;;;4854593;29;20423;-77
2021/03/26 07:11:21;;;;;;;14.32;11.43;;;6.90;99.90;;;;;;4854508;29;20412;-78
2021/03/26 07:14:09;;;;;;;14.93;12.05;;;7.20;99.90;;;;;;4852970;29;20770;-75
2021/03/26 07:16:53;;;;;;;19.90;13.13;;;7.40;99.90;;;;;;4842729;29;20520;-75
2021/03/26 07:19:42;;;;;;;14.40;12.38;;;7.70;99.90;;;;;;4871195;29;20404;-74
2021/03/26 07:22:26;;;;;;;16.83;12.93;;;7.90;99.90;;;;;;4867180;29;20921;-78
2021/03/26 07:24:59;;;;;;;17.35;13.48;;;8.00;99.90;;;;;;4859049;29;20417;-74
2021/03/26 07:27:43;;;;;;;15.80;12.20;;;8.20;99.90;;;;;;4865958;29;20415;-76
2021/03/26 07:30:21;;;;;;;15.00;11.90;;;8.30;99.90;;;;;;4840948;29;20420;-78
2021/03/26 07:33:22;;;;;;;15.57;11.57;;;8.40;99.90;;;;;;4828080;29;20548;-75
2021/03/26 07:36:24;;;;;;;17.50;14.15;;;8.60;99.90;;;;;;4839831;29;20407;-74
2021/03/26 07:39:14;;;;;;;15.45;12.18;;;8.70;99.90;;;;;;4838427;29;21252;-75
2021/03/26 07:41:58;;;;;;;15.70;12.50;;;8.90;99.90;;;;;;4857780;29;20447;-74
2021/03/26 07:44:39;;;;;;;13.87;12.40;;;9.00;99.90;;;;;;4877038;29;20409;-78
2021/03/26 07:47:20;;;;;;;16.10;12.60;;;9.10;99.90;;;;;;4865792;29;20439;-75
2021/03/26 07:50:25;;;;;;;19.70;12.95;;;9.40;99.90;;;;;;4858668;29;20400;-74
2021/03/26 07:53:03;;;;;;;15.88;12.00;;;9.60;99.90;;;;;;4864297;29;20408;-78
2021/03/26 07:55:39;;;;;;;15.60;12.70;;;9.80;99.90;;;;;;4879932;29;20405;-78
2021/03/26 07:58:20;;;;;;;17.00;12.50;;;10.00;99.90;;;;;;4864772;29;20412;-77
2021/03/26 08:01:10;;;;;;;17.07;12.73;;;10.20;99.90;;;;;;4865462;29;20467;-77
2021/03/26 08:04:01;;;;;;;15.93;12.80;;;10.20;99.90;;;;;;4873159;29;20431;-75
2021/03/26 08:06:42;;;;;;;16.75;12.88;;;10.30;99.90;;;;;;4864786;29;20440;-76
2021/03/26 08:09:15;;;;;;;14.55;11.65;;;10.50;99.90;;;;;;4863454;29;20843;-75
2021/03/26 08:12:02;;;;;;;14.63;12.05;;;10.60;99.90;;;;;;4864650;29;20778;-76
2021/03/26 08:14:49;;;;;;;13.52;11.75;;;10.70;99.90;;;;;;4866927;29;20505;-74
2021/03/26 08:17:19;;;;;;;14.77;11.60;;;10.80;99.90;;;;;;4864648;29;20461;-78
2021/03/26 08:20:10;;;;;;;14.32;11.77;;;10.90;99.90;;;;;;4867888;29;20954;-74
2021/03/26 08:23:10;;;;;;;15.68;12.20;;;11.10;99.90;;;;;;4880710;29;20397;-78
2021/03/26 08:25:58;;;;;;;13.97;11.60;;;11.20;99.90;;;;;;4864180;29;20413;-75
2021/03/26 08:28:52;;;;;;;11.98;10.63;;;11.30;99.90;;;;;;4862575;29;20420;-74
2021/03/26 08:31:48;;;;;;;15.35;11.60;;;11.50;99.90;;;;;;4864566;29;20414;-73
2021/03/26 08:34:53;;;;;;;15.57;12.00;;;11.60;99.90;;;;;;4878664;29;20424;-75
2021/03/26 08:37:43;;;;;;;16.45;11.60;;;11.80;99.90;;;;;;4868672;29;20413;-75
2021/03/26 08:40:12;;;;;;;16.45;11.10;;;11.90;99.90;;;;;;4863282;29;20432;-76
2021/03/26 08:42:42;;;;;;;14.13;10.30;;;12.10;99.90;;;;;;4844379;29;20398;-74
2021/03/26 08:45:11;;;;;;;13.73;11.77;;;12.30;99.90;;;;;;4844530;29;20413;-78
2021/03/26 08:48:15;;;;;;;15.05;11.70;;;12.50;99.90;;;;;;4867723;29;20424;-78
2021/03/26 08:50:53;;;;;;;16.50;11.32;;;12.60;99.90;;;;;;4836427;29;20413;-82
2021/03/26 08:53:34;;;;;;;15.95;11.35;;;12.70;99.90;;;;;;4875420;29;20416;-78
2021/03/26 08:56:10;;;;;;;15.15;11.80;;;12.90;99.90;;;;;;4860549;29;20409;-79
2021/03/26 08:58:57;;;;;;;13.40;10.33;;;13.00;99.90;;;;;;4833867;29;20421;-78
2021/03/26 09:01:57;;;;;;;16.03;12.03;;;13.20;99.90;;;;;;4864723;29;20408;-80
2021/03/26 09:04:41;;;;;;;14.13;10.25;;;13.40;99.90;;;;;;4871092;29;20420;-79
2021/03/26 09:07:15;;;;;;;16.17;11.73;;;13.50;99.90;;;;;;4861398;29;20410;-78
2021/03/26 09:09:59;;;;;;;16.77;12.10;;;13.60;99.90;;;;;;4856156;29;20409;-77
2021/03/26 09:12:43;;;;;;;15.15;11.52;;;13.60;99.90;;;;;;4854962;29;20589;-78
2021/03/26 09:15:34;;;;;;;15.97;11.47;;;13.60;99.90;;;;;;4859462;29;20972;-78
2021/03/26 09:18:12;;;;;;;18.30;12.80;;;13.70;99.90;;;;;;4859918;29;20425;-78
2021/03/26 09:20:42;;;;;;;19.95;13.05;;;13.80;99.90;;;;;;4858689;29;20473;-78
2021/03/26 09:23:28;;;;;;;13.13;11.27;;;13.90;99.90;;;;;;4828910;29;20420;-78
2021/03/26 09:26:06;;;;;;;15.75;10.88;;;14.00;99.90;;;;;;4874280;29;20405;-77
2021/03/26 09:28:43;;;;;;;14.98;11.77;;;14.10;99.90;;;;;;4842291;29;20777;-79
2021/03/26 09:31:19;;;;;;;25.40;17.48;;;14.30;99.90;;;;;;4843608;29;20464;-78
2021/03/26 09:33:59;;;;;;;19.67;13.43;;;14.40;99.90;;;;;;4858778;29;20420;-78
2021/03/26 09:36:28;;;;;;;16.92;12.60;;;14.60;99.90;;;;;;4843164;29;20408;-78
2021/03/26 09:39:09;;;;;;;19.73;13.23;;;14.70;99.90;;;;;;4827371;29;20408;-77
2021/03/26 09:41:51;;;;;;;16.03;12.07;;;14.90;99.90;;;;;;4842164;29;20464;-78
2021/03/26 09:44:26;;;;;;;17.10;12.30;;;15.00;99.90;;;;;;4858788;29;20447;-78
2021/03/26 09:47:32;;;;;;;18.67;12.82;;;15.10;99.90;;;;;;4848032;29;20486;-78
2021/03/26 09:50:06;;;;;;;17.80;12.50;;;15.30;99.90;;;;;;4851640;29;20409;-78
2021/03/26 09:52:36;;;;;;;18.67;11.87;;;15.40;99.90;;;;;;4866580;29;21016;-78
2021/03/26 09:55:08;;;;;;;13.18;10.77;;;15.50;99.90;;;;;;4858408;29;21030;-78
2021/03/26 09:57:51;;;;;;;14.07;10.93;;;15.50;99.90;;;;;;4827994;29;20449;-78
2021/03/26 10:00:34;;;;;;;15.27;11.50;;;15.60;99.90;;;;;;4863208;29;20420;-78
2021/03/26 10:03:10;;;;;;;16.90;12.10;;;15.90;99.90;;;;;;4842894;29;20507;-78
2021/03/26 10:05:55;;;;;;;14.73;11.15;;;16.10;99.90;;;;;;4858646;29;20440;-78
2021/03/26 10:08:52;;;;;;;14.43;10.90;;;16.20;99.90;;;;;;4841211;29;20438;-78
2021/03/26 10:11:21;;;;;;;15.98;10.52;;;16.20;99.90;;;;;;4843696;29;20422;-77
2021/03/26 10:14:12;;;;;;;15.60;10.60;;;16.30;99.90;;;;;;4872050;29;20544;-77
2021/03/26 10:16:49;;;;;;;17.30;11.45;;;16.60;99.90;;;;;;4853887;29;20448;-78
2021/03/26 10:19:26;;;;;;;13.13;10.17;;;16.90;99.90;;;;;;4856228;29;20460;-78
2021/03/26 10:21:58;;;;;;;14.65;11.07;;;16.90;99.90;;;;;;4839150;29;20428;-78
2021/03/26 10:24:31;;;;;;;15.65;10.68;;;16.90;99.90;;;;;;4872123;29;20432;-78
2021/03/26 10:27:00;;;;;;;11.70;9.55;;;17.20;99.90;;;;;;4833009;29;20439;-78
2021/03/26 10:29:41;;;;;;;12.30;9.88;;;17.40;99.90;;;;;;4872313;29;20907;-78
2021/03/26 10:32:20;;;;;;;13.13;10.32;;;17.50;99.90;;;;;;4843564;29;20475;-78
2021/03/26 10:34:46;;;;;;;12.05;9.32;;;17.70;99.90;;;;;;4856398;29;20408;-76
2021/03/26 10:37:36;;;;;;;13.40;9.27;;;18.00;99.90;;;;;;4855826;29;20415;-76
2021/03/26 10:40:08;;;;;;;14.18;9.43;;;18.30;99.90;;;;;;4861879;29;21034;-77
2021/03/26 10:42:40;;;;;;;16.75;9.75;;;18.40;99.90;;;;;;4876382;29;20405;-77
2021/03/26 10:45:25;;;;;;;13.30;9.70;;;18.50;99.90;;;;;;4847010;29;20833;-77
2021/03/26 10:47:54;;;;;;;10.63;8.93;;;18.60;99.90;;;;;;4845944;29;20432;-77
2021/03/26 10:50:44;;;;;;;13.02;9.95;;;18.80;99.90;;;;;;4855661;29;20557;-77
2021/03/26 10:53:15;;;;;;;12.05;9.93;;;18.80;99.90;;;;;;4845920;29;20445;-76
2021/03/26 10:55:52;;;;;;;12.35;8.98;;;18.60;99.90;;;;;;4839108;29;20411;-74
2021/03/26 10:58:42;;;;;;;11.98;9.38;;;18.70;99.90;;;;;;4838631;29;20471;-76
2021/03/26 11:01:10;;;;;;;10.68;8.68;;;18.80;99.90;;;;;;4839955;29;20548;-76
2021/03/26 11:03:43;;;;;;;10.47;8.13;;;19.00;99.90;;;;;;4842557;29;20444;-75
2021/03/26 11:06:12;;;;;;;12.07;8.05;;;19.20;99.90;;;;;;4842198;29;20416;-76
2021/03/26 11:08:41;;;;;;;11.07;7.97;;;19.60;99.90;;;;;;4839862;29;20417;-77
2021/03/26 11:11:10;;;;;;;9.15;7.97;;;19.80;99.90;;;;;;4851887;29;20404;-77
2021/03/26 11:14:04;;;;;;;9.75;7.43;;;19.50;99.90;;;;;;4869601;29;20429;-74
2021/03/26 11:16:40;;;;;;;11.10;8.02;;;19.50;99.90;;;;;;4835407;29;20532;-76
2021/03/26 11:19:07;;;;;;;7.70;6.65;;;19.80;99.90;;;;;;4840541;29;20416;-76
2021/03/26 11:21:42;;;;;;;8.60;7.00;;;20.30;99.90;;;;;;4837380;29;20424;-76
2021/03/26 11:24:09;;;;;;;6.75;6.05;;;20.60;97.80;;;;;;4838838;29;20441;-76
2021/03/26 11:26:38;;;;;;;10.37;6.83;;;20.80;97.80;;;;;;4838822;29;20409;-77
2021/03/26 11:29:03;;;;;;;10.35;7.53;;;21.10;96.60;;;;;;4840319;29;20445;-76
2021/03/26 11:31:38;;;;;;;10.07;7.87;;;21.20;94.00;;;;;;4858616;29;20400;-76
2021/03/26 11:34:38;;;;;;;10.47;6.87;;;21.40;92.80;;;;;;4871108;29;20408;-76
2021/03/26 11:37:08;;;;;;;10.75;7.95;;;21.60;93.90;;;;;;4851007;29;20413;-76
2021/03/26 11:39:44;;;;;;;11.63;8.40;;;21.80;92.80;;;;;;4853992;29;20496;-78
2021/03/26 11:42:12;;;;;;;9.60;7.80;;;22.10;92.70;;;;;;4849178;29;20416;-79
2021/03/26 11:44:39;;;;;;;8.30;7.22;;;22.50;91.10;;;;;;4867842;29;20434;-78
2021/03/26 11:47:41;;;;;;;9.57;7.43;;;22.90;90.10;;;;;;4837189;29;20419;-79
2021/03/26 11:50:23;;;;;;;10.03;7.83;;;22.80;88.10;;;;;;4855266;29;20408;-80
2021/03/26 11:53:19;;;;;;;12.27;8.00;;;22.70;79.70;;;;;;4847621;29;20774;-79
2021/03/26 11:56:07;;;;;;;10.35;7.57;;;22.40;76.20;;;;;;4861777;29;20401;-79
2021/03/26 11:58:38;;;;;;;13.63;7.97;;;21.90;77.30;;;;;;4862905;29;20880;-79
2021/03/26 12:01:08;;;;;;;10.80;7.82;;;21.40;77.70;;;;;;4860649;29;20421;-79
2021/03/26 12:03:59;;;;;;;11.00;7.95;;;21.50;83.40;;;;;;4846498;29;20424;-82
2021/03/26 12:06:36;;;;;;;9.02;7.13;;;21.50;78.60;;;;;;4853977;29;20899;-79
2021/03/26 12:09:22;;;;;;;11.65;7.70;;;21.40;76.40;;;;;;4830030;29;20460;-80
2021/03/26 12:11:53;;;;;;;10.80;8.07;;;21.60;78.40;;;;;;4860936;29;20409;-79
2021/03/26 12:14:32;;;;;;;9.82;8.02;;;21.80;75.80;;;;;;4875373;29;20812;-80
2021/03/26 12:17:22;;;;;;;10.80;8.32;;;22.00;76.90;;;;;;4859470;29;20468;-79
2021/03/26 12:19:50;;;;;;;9.73;8.13;;;21.90;72.80;;;;;;4861197;29;20783;-77
2021/03/26 12:22:35;;;;;;;9.23;8.07;;;21.90;76.60;;;;;;4845451;29;20474;-79
2021/03/26 12:25:04;;;;;;;10.75;8.05;;;21.80;71.90;;;;;;4849220;29;20480;-79
2021/03/26 12:27:34;;;;;;;10.75;7.78;;;21.50;72.30;;;;;;4864287;29;20424;-80
2021/03/26 12:30:12;;;;;;;15.03;8.90;;;21.10;75.90;;;;;;4857584;29;20412;-81
2021/03/26 12:32:43;;;;;;;13.07;8.40;;;21.20;75.20;;;;;;4829074;29;20424;-80
2021/03/26 12:35:17;;;;;;;12.32;8.13;;;21.20;72.00;;;;;;4862906;29;20420;-81
2021/03/26 12:37:44;;;;;;;9.55;8.13;;;21.20;73.40;;;;;;4870198;29;20447;-81
2021/03/26 12:40:39;;;;;;;8.57;7.63;;;21.20;74.70;;;;;;4866722;29;20500;-81
2021/03/26 12:43:11;;;;;;;9.90;8.17;;;21.60;78.60;;;;;;4864625;29;20480;-81
2021/03/26 12:45:58;;;;;;;10.43;7.25;;;21.90;74.60;;;;;;4845532;29;20496;-79
2021/03/26 12:48:34;;;;;;;15.10;9.18;;;21.90;72.00;;;;;;4840931;29;20401;-80
2021/03/26 12:51:06;;;;;;;11.93;9.15;;;21.90;76.70;;;;;;4846869;29;20414;-79
2021/03/26 12:53:39;;;;;;;10.77;7.82;;;22.20;74.80;;;;;;4833315;29;20429;-79
2021/03/26 12:56:32;;;;;;;10.77;8.13;;;22.30;73.20;;;;;;4838635;29;20413;-79
2021/03/26 12:59:18;;;;;;;10.37;8.33;;;22.20;70.40;;;;;;4859989;29;20805;-80
2021/03/26 13:01:53;;;;;;;14.75;9.15;;;22.10;68.30;;;;;;4844889;29;20424;-80
2021/03/26 13:04:40;;;;;;;11.80;7.88;;;22.10;73.80;;;;;;4847503;29;20412;-79
2021/03/26 13:07:40;;;;;;;10.63;8.85;;;22.20;70.10;;;;;;4879188;29;20969;-79
2021/03/26 13:10:24;;;;;;;13.10;7.68;;;21.60;70.30;;;;;;4861734;29;20484;-79
2021/03/26 13:12:49;;;;;;;11.40;8.88;;;21.30;73.10;;;;;;4843068;29;20894;-78
2021/03/26 13:15:18;;;;;;;10.50;8.35;;;21.20;74.20;;;;;;4841153;29;20409;-78
2021/03/26 13:17:44;;;;;;;10.57;8.00;;;20.90;72.80;;;;;;4857816;29;20557;-78
2021/03/26 13:20:13;;;;;;;9.10;8.00;;;20.70;74.10;;;;;;4842775;29;20424;-78
2021/03/26 13:23:01;;;;;;;10.38;8.27;;;20.60;73.20;;;;;;4842427;29;20731;-79
2021/03/26 13:25:48;;;;;;;9.45;8.07;;;20.50;74.80;;;;;;4856301;29;20414;-78
2021/03/26 13:28:20;;;;;;;8.73;7.28;;;20.70;75.50;;;;;;4854571;29;20425;-78
2021/03/26 13:30:56;;;;;;;11.35;7.95;;;20.90;75.30;;;;;;4841284;29;20423;-78
2021/03/26 13:33:44;;;;;;;10.10;7.55;;;20.50;73.30;;;;;;4851757;29;20429;-79
2021/03/26 13:36:32;;;;;;;11.13;8.38;;;20.20;75.80;;;;;;4842327;29;20764;-77
2021/03/26 13:39:05;;;;;;;9.35;7.57;;;19.80;76.00;;;;;;4852266;29;20418;-79
2021/03/26 13:41:47;;;;;;;10.38;7.38;;;19.50;78.10;;;;;;4842207;29;20438;-79
2021/03/26 13:44:16;;;;;;;9.05;7.47;;;19.50;79.30;;;;;;4841209;29;20410;-78
2021/03/26 13:46:42;;;;;;;7.53;6.77;;;19.40;80.00;;;;;;4840361;29;20418;-78
2021/03/26 13:49:15;;;;;;;8.35;6.95;;;19.20;78.20;;;;;;4856108;29;20795;-79
2021/03/26 13:51:41;;;;;;;9.07;7.38;;;19.10;80.20;;;;;;4843544;29;20435;-79